Boone, NC (28607)

2:23 AM EDT on August 29, 2015 (GMT -0400)
Poplar Hill Drive / Cardinal Ln Boone | | Change Station
CLOSE
Current Station
Personal Weather Station
Location: Boone, NC
Elevation: 3333 ft
Nearby Weather Stations

Elev 3333 ft 36.21 °N, 81.68 °W | Updated 4 seconds ago

Clear
Clear
57.4 °F
Feels Like 57.4 °F
N
0.0
Wind Variable Wind from SE
Gusts 0.0 mph

Today
High -- | Low -- °F
--% Chance of Precip.
Yesterday
High -- | Low -- °F
Precip. -- in
6:55 AM 7:58 PM
Full, 100% visible
Pressure 30.30 in
Visibility 5.0 miles
Clouds Clear
Dew Point 56 °F
Humidity 96%
Rainfall 0.00 in
Snow Depth Not available.
UV 0.0 out of 12
Pollen 8.50 out of 12
Air Quality Not available.
Flu Activity Not available.
METAR KTNB 290615Z AUTO 00000KT 5SM BR CLR 13/13 A3030 RMK AO2 T01270127
Pressure 30.30 in
Visibility 5.0 miles
Clouds Clear
Dew Point 56 °F
Humidity 96%
Rainfall 0.00 in
Snow Depth Not available.
UV 0.0 out of 12
Pollen 8.50 out of 12
Air Quality Not available.
Flu Activity Not available.
METAR KTNB 290615Z AUTO 00000KT 5SM BR CLR 13/13 A3030 RMK AO2 T01270127

10-Day Weather Forecast

×

Almanac

Astronomy

Aug. 29, 2015 Rise Set
Actual Time
Civil Twilight
Nautical Twilight
Astronomical Twilight
Moon
Length of Visible Light
Length of Day
Tomorrow will be .
, % of the Moon is Illuminated

Today's Extremes

State Highs State Lows

Community

WunderPhotos

Upload Photos

1,850,622 photos uploaded!

WunderBlogs® & News

Nearby

Air Quality

  Air Quality AQ Index Pollutant
Not available.

Snow Depth

Station Depth Elevation

Earthquake Activity

City Distance Mag. Time & Date
Minimum magnitude displayed is 2.5.

Coastal Water Temperatures

Place Temperature

Stations

Nearby Weather Stations

Station Location Temp. Windchill Dew Point Humidity Wind Precip. Elev Updated Type